Time;durP1;ratioP1;P1;durP2;ratioP2;P2;SDS_P1;SDS_P2;PMS_P1;PMS_P2;Temp;Humidity;BMP_temperature;BMP_pressure;BME280_temperature;BME280_humidity;BME280_pressure;Samples;Min_cycle;Max_cycle;Signal;HPM_P1;HPM_P2
2022/05/29 00:00:47;;;;;;;0.30;0.20;;;7.80;99.90;;;;;;5083407;28;21051;-86
2022/05/29 00:03:14;;;;;;;0.30;0.10;;;7.60;99.90;;;;;;5085646;28;20462;-88
2022/05/29 00:05:42;;;;;;;0.30;0.20;;;7.60;99.90;;;;;;5084735;28;20438;-85
2022/05/29 00:08:14;;;;;;;0.30;0.10;;;7.60;99.90;;;;;;5086009;28;20463;-84
2022/05/29 00:10:42;;;;;;;0.30;0.10;;;7.80;99.90;;;;;;5094513;28;20446;-85
2022/05/29 00:13:11;;;;;;;0.30;0.10;;;7.80;99.90;;;;;;5087038;28;20859;-85
2022/05/29 00:15:40;;;;;;;0.30;0.20;;;7.80;99.90;;;;;;5086656;28;20482;-86
2022/05/29 00:18:07;;;;;;;0.30;0.20;;;7.80;99.90;;;;;;5083929;28;20435;-84
2022/05/29 00:20:34;;;;;;;0.30;0.10;;;7.70;99.90;;;;;;5084644;28;20481;-85
2022/05/29 00:23:02;;;;;;;0.30;0.10;;;7.60;99.90;;;;;;5082638;28;20535;-85
2022/05/29 00:25:29;;;;;;;0.30;0.20;;;7.50;99.90;;;;;;5084475;28;21015;-86
2022/05/29 00:27:56;;;;;;;0.30;0.20;;;7.40;99.90;;;;;;5086951;28;20450;-87
2022/05/29 00:30:23;;;;;;;0.30;0.20;;;7.40;99.90;;;;;;5086829;28;20462;-86
2022/05/29 00:32:51;;;;;;;0.30;0.17;;;7.40;99.90;;;;;;5079814;28;20513;-85
2022/05/29 00:35:18;;;;;;;0.30;0.20;;;7.30;99.90;;;;;;5082381;28;20505;-86
2022/05/29 00:37:47;;;;;;;0.30;0.10;;;7.20;99.90;;;;;;5085178;28;20447;-85
2022/05/29 00:40:27;;;;;;;0.30;0.10;;;7.30;99.90;;;;;;5094225;28;20454;-85
2022/05/29 00:42:54;;;;;;;0.30;0.10;;;7.30;99.90;;;;;;5086371;28;20435;-87
2022/05/29 00:45:23;;;;;;;0.30;0.10;;;7.40;99.90;;;;;;5086068;28;21198;-88
2022/05/29 00:47:52;;;;;;;0.30;0.10;;;7.40;99.90;;;;;;5083710;28;20519;-86
2022/05/29 00:50:20;;;;;;;0.30;0.10;;;7.20;99.90;;;;;;5083610;28;20458;-88
2022/05/29 00:52:48;;;;;;;0.30;0.10;;;7.20;99.90;;;;;;5085286;28;20439;-86
2022/05/29 00:55:18;;;;;;;0.30;0.13;;;7.30;99.90;;;;;;5081127;28;20538;-86
2022/05/29 00:57:48;;;;;;;0.30;0.20;;;7.20;99.90;;;;;;5074885;28;21008;-87
2022/05/29 01:00:20;;;;;;;0.30;0.20;;;7.30;99.90;;;;;;5078377;28;20559;-87
2022/05/29 01:02:47;;;;;;;0.30;0.10;;;7.30;99.90;;;;;;5086233;28;20485;-85
2022/05/29 01:05:18;;;;;;;0.30;0.20;;;7.10;99.90;;;;;;5081539;28;20695;-86
2022/05/29 01:07:48;;;;;;;0.30;0.20;;;6.90;99.90;;;;;;5084766;28;20466;-86
2022/05/29 01:10:16;;;;;;;0.30;0.10;;;6.80;99.90;;;;;;5087639;28;20815;-86
2022/05/29 01:12:53;;;;;;;0.30;0.20;;;6.80;99.90;;;;;;5086810;28;20496;-85
2022/05/29 01:15:32;;;;;;;0.30;0.20;;;6.80;99.90;;;;;;5087309;28;20566;-85
2022/05/29 01:18:14;;;;;;;0.30;0.20;;;6.90;99.90;;;;;;5096250;28;20604;-86
2022/05/29 01:21:03;;;;;;;0.30;0.20;;;6.80;99.90;;;;;;5090672;28;20534;-86
2022/05/29 01:23:53;;;;;;;0.30;0.10;;;6.80;99.90;;;;;;5098040;28;21034;-86
2022/05/29 01:26:43;;;;;;;0.30;0.10;;;6.90;99.90;;;;;;5082337;28;20496;-86
2022/05/29 01:29:16;;;;;;;0.30;0.20;;;6.90;99.90;;;;;;5081602;28;20467;-84
2022/05/29 01:31:49;;;;;;;0.30;0.20;;;6.90;99.90;;;;;;5087543;28;20500;-88
2022/05/29 01:34:34;;;;;;;0.30;0.10;;;7.10;99.90;;;;;;5074046;28;20486;-86
2022/05/29 01:37:09;;;;;;;0.30;0.10;;;7.10;99.90;;;;;;5084584;28;20501;-86
2022/05/29 01:39:39;;;;;;;0.30;0.20;;;6.80;99.90;;;;;;5083163;28;20577;-86
2022/05/29 01:42:13;;;;;;;0.30;0.20;;;6.80;99.90;;;;;;5086865;28;20446;-86
2022/05/29 01:44:45;;;;;;;0.30;0.20;;;6.80;99.90;;;;;;5085748;28;20442;-86
2022/05/29 01:47:16;;;;;;;0.30;0.10;;;6.70;99.90;;;;;;5085882;28;20464;-85
2022/05/29 01:49:48;;;;;;;0.30;0.20;;;6.70;99.90;;;;;;5085132;28;20473;-86
2022/05/29 01:52:18;;;;;;;0.30;0.20;;;6.60;99.90;;;;;;5085285;28;20447;-86
2022/05/29 01:54:49;;;;;;;0.30;0.10;;;6.80;99.90;;;;;;5086325;28;20470;-89
2022/05/29 01:57:20;;;;;;;0.30;0.10;;;6.60;99.90;;;;;;5086094;28;20500;-86
2022/05/29 01:59:54;;;;;;;0.30;0.10;;;6.70;99.90;;;;;;5073598;28;20931;-86
2022/05/29 02:02:26;;;;;;;0.30;0.20;;;6.80;99.90;;;;;;5084756;28;21224;-87
2022/05/29 02:04:56;;;;;;;0.30;0.10;;;6.90;99.90;;;;;;5083781;28;20983;-86
2022/05/29 02:10:18;;;;;;;0.30;0.20;;;6.70;99.90;;;;;;5082692;28;20433;-86
2022/05/29 02:12:50;;;;;;;0.87;0.87;;;6.80;99.90;;;;;;5084085;28;20459;-87
2022/05/29 02:15:24;;;;;;;0.30;0.20;;;6.90;99.90;;;;;;5084230;28;20544;-86
2022/05/29 02:17:57;;;;;;;0.30;0.20;;;6.60;99.90;;;;;;5084720;28;20998;-86
2022/05/29 02:20:28;;;;;;;0.30;0.10;;;6.80;99.90;;;;;;5085420;28;20451;-86
2022/05/29 02:23:10;;;;;;;0.30;0.10;;;6.80;99.90;;;;;;5080636;28;20965;-86
2022/05/29 02:25:39;;;;;;;0.30;0.20;;;6.70;99.90;;;;;;5084759;28;20462;-86
2022/05/29 02:28:11;;;;;;;0.30;0.10;;;6.50;99.90;;;;;;5085306;28;20483;-86
2022/05/29 02:30:46;;;;;;;0.30;0.10;;;6.50;99.90;;;;;;5085687;28;20436;-86
2022/05/29 02:33:19;;;;;;;0.30;0.20;;;6.60;99.90;;;;;;5086313;28;20496;-87
2022/05/29 02:35:55;;;;;;;0.30;0.10;;;6.70;99.90;;;;;;5083053;28;20480;-88
2022/05/29 02:38:29;;;;;;;0.43;0.40;;;6.70;99.90;;;;;;5087343;28;20496;-87
2022/05/29 02:41:00;;;;;;;0.30;0.20;;;6.50;99.90;;;;;;5096999;28;21021;-89
2022/05/29 02:43:36;;;;;;;0.30;0.10;;;6.40;99.90;;;;;;5089903;28;20515;-85
2022/05/29 02:46:11;;;;;;;0.30;0.10;;;6.40;99.90;;;;;;5099706;28;20447;-85
2022/05/29 02:48:44;;;;;;;0.30;0.20;;;6.40;99.90;;;;;;5096999;28;20539;-86
2022/05/29 02:51:17;;;;;;;0.30;0.10;;;6.40;99.90;;;;;;5101102;28;20466;-85
2022/05/29 02:53:46;;;;;;;0.30;0.20;;;6.40;99.90;;;;;;5096776;28;20468;-87
2022/05/29 02:56:14;;;;;;;0.30;0.17;;;6.40;99.90;;;;;;5097665;28;20507;-85
2022/05/29 02:58:44;;;;;;;0.30;0.17;;;6.60;99.90;;;;;;5098688;28;20442;-86
2022/05/29 03:01:20;;;;;;;0.50;0.50;;;6.40;99.90;;;;;;5099421;28;20500;-88
2022/05/29 03:04:21;;;;;;;0.30;0.20;;;6.30;99.90;;;;;;5099849;28;20522;-85
2022/05/29 03:06:52;;;;;;;0.30;0.20;;;6.20;99.90;;;;;;5101602;28;20491;-86
2022/05/29 03:09:34;;;;;;;0.30;0.20;;;6.20;99.90;;;;;;5105239;28;20510;-85
2022/05/29 03:12:01;;;;;;;0.30;0.20;;;6.20;99.90;;;;;;5076585;28;20466;-86
2022/05/29 03:14:40;;;;;;;0.30;0.20;;;6.30;99.90;;;;;;5088235;28;20838;-86
2022/05/29 03:17:15;;;;;;;0.30;0.20;;;6.50;99.90;;;;;;5087854;28;21108;-85
2022/05/29 03:19:52;;;;;;;0.30;0.20;;;6.50;99.90;;;;;;5086476;28;20454;-86
2022/05/29 03:22:28;;;;;;;0.30;0.13;;;6.50;99.90;;;;;;5088678;28;20482;-86
2022/05/29 03:25:01;;;;;;;0.30;0.10;;;6.40;99.90;;;;;;5081257;28;20860;-86
2022/05/29 03:27:33;;;;;;;0.30;0.10;;;6.50;99.90;;;;;;5090124;28;20523;-86
2022/05/29 03:30:07;;;;;;;0.30;0.10;;;6.50;99.90;;;;;;5088970;28;20843;-87
2022/05/29 03:32:37;;;;;;;0.30;0.10;;;6.40;99.90;;;;;;5089421;28;20876;-86
2022/05/29 03:35:19;;;;;;;0.30;0.10;;;6.40;99.90;;;;;;5081786;28;21096;-86
2022/05/29 03:37:46;;;;;;;0.30;0.10;;;6.60;99.90;;;;;;5083243;28;20444;-86
2022/05/29 03:40:14;;;;;;;0.30;0.13;;;6.60;99.90;;;;;;5089825;28;20921;-87
2022/05/29 03:42:41;;;;;;;0.30;0.20;;;6.70;99.90;;;;;;5097484;28;20476;-87
2022/05/29 03:45:09;;;;;;;0.30;0.10;;;6.70;99.90;;;;;;5089462;28;20446;-86
2022/05/29 03:47:38;;;;;;;0.30;0.10;;;6.80;99.90;;;;;;5089388;28;20470;-86
2022/05/29 03:50:06;;;;;;;0.30;0.10;;;7.10;99.90;;;;;;5090470;28;20523;-88
2022/05/29 03:52:34;;;;;;;0.30;0.20;;;7.50;99.90;;;;;;5097256;28;20469;-87
2022/05/29 03:55:03;;;;;;;0.30;0.20;;;7.80;99.90;;;;;;5104149;28;20481;-86
2022/05/29 03:57:29;;;;;;;0.30;0.10;;;8.20;99.90;;;;;;5100603;28;20439;-87
2022/05/29 03:59:57;;;;;;;0.30;0.20;;;8.40;99.90;;;;;;5090704;28;20474;-87
2022/05/29 04:02:24;;;;;;;0.30;0.10;;;8.50;99.90;;;;;;5088038;28;20515;-86
2022/05/29 04:04:52;;;;;;;0.30;0.20;;;8.50;99.90;;;;;;5090789;28;21111;-87
2022/05/29 04:12:03;;;;;;;0.30;0.10;;;8.60;99.90;;;;;;5090980;28;20491;-86
2022/05/29 04:12:52;;;;;;;0.30;0.20;;;8.80;99.90;;;;;;5081706;28;20557;-87
2022/05/29 04:15:19;;;;;;;0.30;0.20;;;8.80;99.90;;;;;;5087820;28;20478;-86
2022/05/29 04:17:46;;;;;;;0.30;0.20;;;8.90;99.90;;;;;;5081841;28;20442;-86
2022/05/29 04:20:14;;;;;;;0.30;0.20;;;8.90;99.90;;;;;;5087076;28;20504;-88
2022/05/29 04:22:41;;;;;;;0.30;0.20;;;9.00;99.90;;;;;;5086120;28;21047;-87
2022/05/29 04:25:09;;;;;;;0.30;0.20;;;9.10;99.90;;;;;;5090076;28;21401;-89
2022/05/29 04:27:36;;;;;;;0.30;0.20;;;9.30;99.90;;;;;;5087391;28;20443;-88
2022/05/29 04:30:05;;;;;;;0.30;0.10;;;9.20;99.90;;;;;;5086704;28;20455;-88
2022/05/29 04:35:18;;;;;;;0.30;0.20;;;9.60;99.90;;;;;;5086963;28;20535;-87
2022/05/29 04:37:46;;;;;;;0.30;0.20;;;9.50;99.90;;;;;;5085414;28;20447;-87
2022/05/29 04:40:13;;;;;;;0.30;0.20;;;9.70;99.90;;;;;;5088675;28;20435;-88
2022/05/29 04:42:40;;;;;;;0.30;0.17;;;9.80;99.90;;;;;;5086103;28;20484;-88
2022/05/29 04:45:08;;;;;;;0.30;0.20;;;10.10;99.90;;;;;;5087725;28;20476;-88
2022/05/29 04:47:35;;;;;;;0.30;0.20;;;10.40;99.90;;;;;;5086240;28;21022;-86
2022/05/29 04:50:02;;;;;;;0.30;0.20;;;10.40;99.90;;;;;;5087013;28;20986;-87
2022/05/29 04:52:30;;;;;;;0.30;0.20;;;10.30;99.90;;;;;;5086062;28;20885;-88
2022/05/29 04:54:57;;;;;;;0.30;0.10;;;10.30;99.90;;;;;;5083244;28;20497;-87
2022/05/29 04:57:24;;;;;;;0.30;0.20;;;10.20;99.90;;;;;;5085447;28;20473;-88
2022/05/29 04:59:51;;;;;;;0.30;0.10;;;10.00;99.90;;;;;;5075611;28;20488;-88
2022/05/29 05:02:18;;;;;;;0.30;0.20;;;10.10;99.90;;;;;;5086725;28;20463;-86
2022/05/29 05:04:45;;;;;;;0.30;0.20;;;10.20;99.90;;;;;;5085504;28;20431;-88
2022/05/29 05:07:12;;;;;;;0.30;0.20;;;10.30;99.90;;;;;;5084782;28;20471;-87
2022/05/29 05:09:41;;;;;;;0.30;0.10;;;10.40;99.90;;;;;;5086203;28;20439;-88
2022/05/29 05:12:08;;;;;;;0.30;0.20;;;10.30;99.90;;;;;;5086692;28;20434;-86
2022/05/29 05:14:36;;;;;;;0.30;0.17;;;10.10;99.90;;;;;;5086029;28;20492;-88
2022/05/29 05:17:04;;;;;;;0.30;0.20;;;9.90;99.90;;;;;;5087056;28;20475;-86
2022/05/29 05:19:31;;;;;;;0.30;0.20;;;9.80;99.90;;;;;;5088889;28;20499;-86
2022/05/29 05:22:01;;;;;;;0.30;0.20;;;9.80;99.90;;;;;;5095370;28;20439;-87
2022/05/29 05:24:28;;;;;;;0.30;0.20;;;9.80;99.90;;;;;;5098974;28;20466;-86
2022/05/29 05:26:58;;;;;;;0.30;0.20;;;9.80;99.90;;;;;;5095524;28;20453;-87
2022/05/29 05:29:26;;;;;;;0.30;0.20;;;10.00;99.90;;;;;;5093518;28;20441;-88
2022/05/29 05:31:53;;;;;;;0.30;0.20;;;9.90;99.90;;;;;;5078801;28;20435;-87
2022/05/29 05:34:20;;;;;;;0.30;0.17;;;10.00;99.90;;;;;;5083360;28;20463;-86
2022/05/29 05:36:47;;;;;;;0.30;0.20;;;10.00;99.90;;;;;;5091061;28;20885;-86
2022/05/29 05:39:14;;;;;;;0.30;0.20;;;9.90;99.90;;;;;;5088839;28;20471;-86
2022/05/29 05:41:41;;;;;;;0.30;0.20;;;9.80;99.90;;;;;;5082312;28;20451;-86
2022/05/29 05:44:09;;;;;;;0.30;0.10;;;9.90;99.90;;;;;;5080532;28;21171;-87
2022/05/29 05:46:36;;;;;;;0.30;0.20;;;10.00;99.90;;;;;;5082831;28;20432;-85
2022/05/29 05:49:03;;;;;;;0.30;0.20;;;10.00;99.90;;;;;;5084328;28;20462;-87
2022/05/29 05:51:30;;;;;;;0.30;0.20;;;10.10;99.90;;;;;;5085798;28;20784;-87
2022/05/29 05:53:57;;;;;;;0.30;0.10;;;10.20;99.90;;;;;;5082781;28;20807;-86
2022/05/29 05:56:24;;;;;;;0.30;0.20;;;10.00;99.90;;;;;;5083846;28;21145;-86
2022/05/29 05:58:51;;;;;;;0.30;0.20;;;10.10;99.90;;;;;;5081773;28;20451;-86
2022/05/29 06:01:20;;;;;;;0.30;0.20;;;10.20;99.90;;;;;;5084215;28;20463;-87
2022/05/29 06:03:47;;;;;;;0.30;0.20;;;10.30;99.90;;;;;;5078610;28;20454;-87
2022/05/29 06:06:14;;;;;;;0.30;0.10;;;10.40;99.90;;;;;;5078749;28;20474;-87
2022/05/29 06:08:41;;;;;;;0.30;0.20;;;10.70;99.90;;;;;;5076546;28;20439;-87
2022/05/29 06:11:08;;;;;;;0.30;0.20;;;10.90;99.90;;;;;;5089278;28;20458;-85
2022/05/29 06:13:36;;;;;;;0.30;0.10;;;11.00;99.90;;;;;;5085472;28;20452;-86
2022/05/29 06:16:04;;;;;;;0.30;0.20;;;11.20;99.90;;;;;;5083936;28;20520;-86
2022/05/29 06:18:33;;;;;;;0.30;0.20;;;11.30;99.90;;;;;;5085409;28;20532;-86
2022/05/29 06:21:01;;;;;;;0.30;0.20;;;11.70;99.90;;;;;;5086442;28;20532;-87
2022/05/29 06:23:29;;;;;;;0.40;0.30;;;11.80;99.90;;;;;;5089451;28;20859;-88
2022/05/29 06:25:56;;;;;;;0.30;0.20;;;12.00;99.90;;;;;;5085825;28;20524;-85
2022/05/29 06:28:23;;;;;;;0.30;0.20;;;12.00;99.90;;;;;;5082415;28;20496;-86
2022/05/29 06:30:50;;;;;;;0.30;0.20;;;12.30;99.90;;;;;;5093148;28;20460;-86
2022/05/29 06:33:17;;;;;;;0.30;0.20;;;12.60;99.90;;;;;;5101244;28;20509;-87
2022/05/29 06:35:45;;;;;;;0.30;0.20;;;13.00;99.90;;;;;;5090246;28;20490;-88
2022/05/29 06:38:12;;;;;;;0.30;0.20;;;13.40;99.90;;;;;;5084891;28;21127;-87
2022/05/29 06:40:42;;;;;;;0.30;0.20;;;13.30;99.90;;;;;;5076723;28;20833;-86
2022/05/29 06:43:11;;;;;;;0.67;0.43;;;12.90;99.90;;;;;;5083588;28;20828;-86
2022/05/29 06:45:38;;;;;;;0.30;0.20;;;12.80;99.90;;;;;;5089366;28;20478;-86
2022/05/29 06:48:05;;;;;;;0.30;0.20;;;13.10;99.90;;;;;;5084235;28;20796;-86
2022/05/29 06:50:32;;;;;;;0.30;0.20;;;13.20;99.90;;;;;;5084005;28;20923;-86
2022/05/29 06:53:01;;;;;;;0.30;0.20;;;13.40;99.90;;;;;;5081265;28;20455;-86
2022/05/29 06:55:28;;;;;;;0.30;0.20;;;13.20;99.90;;;;;;5078980;28;21460;-86
2022/05/29 06:57:55;;;;;;;0.30;0.20;;;13.30;99.90;;;;;;5076121;28;20477;-85
2022/05/29 07:08:42;;;;;;;0.30;0.20;;;13.50;99.80;;;;;;5091651;28;20517;-86
2022/05/29 07:11:12;;;;;;;0.30;0.20;;;13.60;98.10;;;;;;5088654;28;20458;-86
2022/05/29 07:13:40;;;;;;;0.30;0.20;;;14.00;98.50;;;;;;5088252;28;20449;-87
2022/05/29 07:16:07;;;;;;;0.30;0.20;;;14.00;95.80;;;;;;5083389;28;20495;-87
2022/05/29 07:18:34;;;;;;;0.30;0.20;;;14.00;97.20;;;;;;5079825;28;20466;-86
2022/05/29 07:21:02;;;;;;;0.30;0.20;;;14.00;96.10;;;;;;5081187;28;20466;-86
2022/05/29 07:23:29;;;;;;;0.30;0.20;;;14.20;96.60;;;;;;5088774;28;20572;-86
2022/05/29 07:25:58;;;;;;;0.30;0.20;;;14.20;96.50;;;;;;5089325;28;20434;-85
2022/05/29 07:28:25;;;;;;;0.30;0.20;;;14.60;95.80;;;;;;5087946;28;20516;-85
2022/05/29 07:30:54;;;;;;;0.30;0.20;;;14.70;96.20;;;;;;5088612;28;20455;-87
2022/05/29 07:33:22;;;;;;;0.30;0.20;;;14.50;95.70;;;;;;5086574;28;21052;-88
2022/05/29 07:35:50;;;;;;;0.30;0.20;;;14.50;95.20;;;;;;5087224;28;20503;-87
2022/05/29 07:38:17;;;;;;;0.30;0.20;;;14.30;95.60;;;;;;5087883;28;20446;-86
2022/05/29 07:40:44;;;;;;;0.30;0.20;;;14.10;95.90;;;;;;5094760;28;20460;-87
2022/05/29 07:43:21;;;;;;;0.30;0.20;;;14.10;95.70;;;;;;5090902;28;20461;-87
2022/05/29 07:45:49;;;;;;;0.30;0.20;;;14.40;96.20;;;;;;5086961;28;20522;-86
2022/05/29 07:48:17;;;;;;;0.30;0.20;;;14.40;95.40;;;;;;5088083;28;20457;-86
2022/05/29 07:50:45;;;;;;;0.30;0.20;;;14.50;94.60;;;;;;5086725;28;20518;-87
2022/05/29 07:53:12;;;;;;;0.30;0.20;;;14.60;94.90;;;;;;5088261;28;20935;-86
2022/05/29 07:55:40;;;;;;;0.30;0.20;;;14.40;95.00;;;;;;5100115;28;20446;-87
2022/05/29 07:58:08;;;;;;;0.30;0.20;;;14.40;94.80;;;;;;5081724;28;20546;-87
2022/05/29 08:00:36;;;;;;;0.30;0.20;;;14.40;94.10;;;;;;5086682;28;20515;-87
2022/05/29 08:03:04;;;;;;;0.40;0.30;;;14.40;95.60;;;;;;5087227;28;21017;-88
2022/05/29 08:05:35;;;;;;;0.30;0.20;;;14.30;95.20;;;;;;5085596;28;20885;-85
2022/05/29 08:08:04;;;;;;;0.30;0.20;;;14.40;94.80;;;;;;5086749;28;20451;-86
2022/05/29 08:10:33;;;;;;;0.30;0.20;;;14.30;94.90;;;;;;5086394;28;20480;-87
2022/05/29 08:13:01;;;;;;;0.30;0.20;;;14.30;94.40;;;;;;5085343;28;20532;-87
2022/05/29 08:15:29;;;;;;;0.30;0.20;;;14.30;93.10;;;;;;5081743;28;20459;-86
2022/05/29 08:17:58;;;;;;;0.40;0.33;;;14.30;94.00;;;;;;5083382;28;20469;-86
2022/05/29 08:20:26;;;;;;;0.30;0.20;;;14.20;93.50;;;;;;5082962;28;20960;-86
2022/05/29 08:22:53;;;;;;;1.23;0.93;;;14.20;94.40;;;;;;5081436;28;21180;-87
2022/05/29 08:30:53;;;;;;;0.30;0.20;;;14.30;94.60;;;;;;5091862;28;20466;-88
2022/05/29 08:33:23;;;;;;;0.30;0.20;;;14.40;94.00;;;;;;5094227;28;20455;-87
2022/05/29 08:35:53;;;;;;;0.40;0.30;;;14.40;93.40;;;;;;5091492;28;20486;-86
2022/05/29 08:38:20;;;;;;;0.30;0.20;;;14.10;93.00;;;;;;5089598;28;20474;-87
2022/05/29 08:40:50;;;;;;;0.30;0.20;;;14.10;94.60;;;;;;5082984;28;20506;-86
2022/05/29 08:43:25;;;;;;;0.30;0.20;;;14.30;94.90;;;;;;5083804;28;20538;-88
2022/05/29 08:45:52;;;;;;;0.30;0.20;;;14.10;93.10;;;;;;5078264;28;20467;-88
2022/05/29 08:48:24;;;;;;;0.30;0.20;;;14.20;94.10;;;;;;5084135;28;20445;-88
2022/05/29 08:51:01;;;;;;;0.30;0.20;;;14.20;94.20;;;;;;5082177;28;21032;-88
2022/05/29 08:53:35;;;;;;;0.30;0.20;;;14.10;94.30;;;;;;5082312;28;20449;-88
2022/05/29 08:56:12;;;;;;;0.30;0.20;;;14.20;94.90;;;;;;5088606;28;20554;-87
2022/05/29 08:58:57;;;;;;;0.30;0.20;;;14.30;95.10;;;;;;5087658;28;20450;-88
2022/05/29 09:01:35;;;;;;;0.30;0.20;;;14.50;94.20;;;;;;5090051;28;20461;-87
2022/05/29 09:04:09;;;;;;;0.30;0.20;;;14.40;94.20;;;;;;5082817;28;20504;-88
2022/05/29 09:06:39;;;;;;;0.30;0.20;;;14.40;94.10;;;;;;5089681;28;20948;-88
2022/05/29 09:09:13;;;;;;;0.30;0.20;;;14.50;94.70;;;;;;5089746;28;20443;-88
2022/05/29 09:11:47;;;;;;;0.30;0.20;;;14.40;94.40;;;;;;5082554;28;20465;-87
2022/05/29 09:14:25;;;;;;;0.30;0.20;;;14.60;94.20;;;;;;5083614;28;20450;-87
2022/05/29 09:16:59;;;;;;;0.30;0.20;;;14.50;94.40;;;;;;5082828;28;20581;-88
2022/05/29 09:19:38;;;;;;;0.30;0.20;;;14.60;95.00;;;;;;5100166;28;20447;-87
2022/05/29 09:22:15;;;;;;;0.30;0.20;;;14.60;94.90;;;;;;5095367;28;21791;-88
2022/05/29 09:24:51;;;;;;;0.30;0.20;;;14.90;93.80;;;;;;5108362;28;20480;-87
2022/05/29 09:27:18;;;;;;;0.30;0.20;;;14.60;93.90;;;;;;5105630;28;20457;-87
2022/05/29 09:29:45;;;;;;;0.30;0.20;;;14.90;94.10;;;;;;5096958;28;20511;-88
2022/05/29 09:32:16;;;;;;;0.30;0.20;;;14.70;93.40;;;;;;5106219;28;20469;-88
2022/05/29 09:34:49;;;;;;;0.30;0.20;;;14.80;94.20;;;;;;5107804;28;20458;-85
2022/05/29 09:37:27;;;;;;;0.30;0.20;;;14.90;93.80;;;;;;5103476;28;20478;-87
2022/05/29 09:39:57;;;;;;;0.30;0.20;;;14.90;93.50;;;;;;5104166;28;20459;-87
2022/05/29 09:42:27;;;;;;;0.30;0.20;;;15.10;94.00;;;;;;5101175;28;20483;-86
2022/05/29 09:45:11;;;;;;;0.30;0.20;;;14.90;94.00;;;;;;5106003;28;20522;-85
2022/05/29 09:50:37;;;;;;;0.30;0.20;;;14.80;94.20;;;;;;5085369;28;21112;-87
2022/05/29 09:53:10;;;;;;;0.30;0.20;;;15.20;94.50;;;;;;5084902;28;20462;-86
2022/05/29 09:55:39;;;;;;;0.30;0.20;;;15.50;94.20;;;;;;5087271;28;20484;-86
2022/05/29 09:58:12;;;;;;;0.30;0.20;;;15.30;93.30;;;;;;5080879;28;20483;-86
2022/05/29 10:00:42;;;;;;;0.40;0.30;;;15.30;94.60;;;;;;5080923;28;20452;-85
2022/05/29 10:03:14;;;;;;;0.30;0.20;;;15.30;95.60;;;;;;5084761;28;20500;-84
2022/05/29 10:05:43;;;;;;;0.30;0.20;;;15.10;94.70;;;;;;5075588;28;20446;-86
2022/05/29 10:08:32;;;;;;;0.30;0.20;;;14.90;95.20;;;;;;5073815;28;20597;-87
2022/05/29 10:11:15;;;;;;;0.30;0.20;;;15.30;95.50;;;;;;5090194;28;20495;-86
2022/05/29 10:13:43;;;;;;;0.30;0.20;;;15.50;94.50;;;;;;5086242;28;20799;-85
2022/05/29 10:16:11;;;;;;;0.30;0.20;;;15.70;95.00;;;;;;5084844;28;20526;-86
2022/05/29 10:18:39;;;;;;;0.30;0.20;;;15.60;95.60;;;;;;5087430;28;20499;-87
2022/05/29 10:21:16;;;;;;;0.30;0.20;;;15.60;95.10;;;;;;5090494;28;20827;-86
2022/05/29 10:23:47;;;;;;;0.30;0.20;;;15.60;94.90;;;;;;5081764;28;20544;-87
2022/05/29 10:26:24;;;;;;;0.40;0.30;;;16.00;95.50;;;;;;5085087;28;21133;-85
2022/05/29 10:28:52;;;;;;;0.30;0.20;;;16.20;94.60;;;;;;5078002;28;20513;-86
2022/05/29 10:31:24;;;;;;;0.30;0.20;;;16.10;94.30;;;;;;5084876;28;21154;-85
2022/05/29 10:34:05;;;;;;;0.30;0.20;;;15.90;94.20;;;;;;5082680;28;20509;-86
2022/05/29 10:36:35;;;;;;;0.30;0.20;;;16.00;95.40;;;;;;5085314;28;20899;-87
2022/05/29 10:39:09;;;;;;;0.30;0.20;;;15.90;95.40;;;;;;5090604;28;20555;-87
2022/05/29 10:41:38;;;;;;;0.30;0.20;;;16.00;96.00;;;;;;5087327;28;20927;-86
2022/05/29 10:44:06;;;;;;;0.30;0.20;;;15.90;94.60;;;;;;5083856;28;20516;-87
2022/05/29 10:46:41;;;;;;;0.30;0.20;;;15.90;94.60;;;;;;5079879;28;20475;-86
2022/05/29 10:49:23;;;;;;;0.30;0.20;;;15.70;94.70;;;;;;5081626;28;20513;-87
2022/05/29 10:52:22;;;;;;;0.30;0.20;;;15.60;94.80;;;;;;5083399;28;20952;-87
2022/05/29 10:55:12;;;;;;;0.30;0.20;;;15.70;96.60;;;;;;5087997;28;20527;-88
2022/05/29 10:57:57;;;;;;;0.30;0.20;;;15.60;95.80;;;;;;5084940;28;20548;-83
2022/05/29 11:00:37;;;;;;;0.30;0.20;;;15.60;96.30;;;;;;5080219;28;20951;-89
2022/05/29 11:03:31;;;;;;;0.30;0.20;;;15.70;96.70;;;;;;5084617;28;20479;-87
2022/05/29 11:06:38;;;;;;;0.30;0.20;;;15.40;97.00;;;;;;5082354;28;20451;-86
2022/05/29 11:09:33;;;;;;;0.30;0.20;;;15.60;97.00;;;;;;5088049;28;20962;-85
2022/05/29 11:12:11;;;;;;;0.30;0.20;;;15.50;97.60;;;;;;5075553;28;20451;-86
2022/05/29 11:15:05;;;;;;;0.30;0.20;;;15.40;97.40;;;;;;5088422;28;20446;-87
2022/05/29 11:17:56;;;;;;;0.30;0.20;;;15.30;97.30;;;;;;5087816;28;20542;-86
2022/05/29 11:20:55;;;;;;;0.30;0.20;;;15.30;98.30;;;;;;5083983;28;20456;-86
2022/05/29 11:23:37;;;;;;;0.30;0.20;;;15.20;99.00;;;;;;5085994;28;20482;-86
2022/05/29 11:26:16;;;;;;;0.30;0.20;;;15.10;97.50;;;;;;5086767;28;20973;-87
2022/05/29 11:29:08;;;;;;;0.30;0.20;;;14.80;97.40;;;;;;5087998;28;20511;-86
2022/05/29 11:31:47;;;;;;;0.30;0.20;;;14.90;98.70;;;;;;5090258;28;20897;-86
2022/05/29 11:34:27;;;;;;;0.30;0.20;;;14.90;99.40;;;;;;5086957;28;20451;-86
2022/05/29 11:37:12;;;;;;;0.30;0.20;;;14.70;98.90;;;;;;5092740;28;20552;-86
2022/05/29 11:39:43;;;;;;;0.30;0.20;;;14.60;99.90;;;;;;5103292;28;21208;-87
2022/05/29 11:42:18;;;;;;;0.30;0.20;;;14.50;99.90;;;;;;5100129;28;20495;-86
2022/05/29 11:44:54;;;;;;;0.30;0.20;;;14.70;99.90;;;;;;5103663;28;20455;-85
2022/05/29 11:53:12;;;;;;;0.30;0.20;;;14.80;99.90;;;;;;5085914;28;20449;-86
2022/05/29 11:55:43;;;;;;;0.30;0.20;;;15.10;99.90;;;;;;5086711;28;20501;-86
2022/05/29 11:58:16;;;;;;;0.30;0.20;;;15.20;99.70;;;;;;5086625;28;20484;-88
2022/05/29 12:00:48;;;;;;;0.30;0.20;;;15.80;99.90;;;;;;5085102;28;20464;-86
2022/05/29 12:03:25;;;;;;;0.30;0.20;;;15.80;97.30;;;;;;5085301;28;20446;-86
2022/05/29 12:05:58;;;;;;;0.30;0.20;;;15.70;97.20;;;;;;5077295;28;20448;-86
2022/05/29 12:08:32;;;;;;;0.30;0.20;;;15.80;97.40;;;;;;5081348;28;20471;-86
2022/05/29 12:11:08;;;;;;;0.30;0.20;;;16.10;96.90;;;;;;5080011;28;20472;-89
2022/05/29 12:13:40;;;;;;;0.30;0.20;;;16.20;95.20;;;;;;5085906;28;20525;-87
2022/05/29 12:16:11;;;;;;;0.30;0.20;;;16.10;93.60;;;;;;5083604;28;20823;-86
2022/05/29 12:18:45;;;;;;;0.30;0.20;;;16.00;92.80;;;;;;5074156;28;20949;-88
2022/05/29 12:21:16;;;;;;;0.30;0.20;;;15.90;93.10;;;;;;5075321;28;20440;-87
2022/05/29 12:23:47;;;;;;;0.30;0.20;;;15.50;93.30;;;;;;5074901;28;20480;-85
2022/05/29 12:26:19;;;;;;;0.30;0.20;;;15.70;93.30;;;;;;5089971;28;20436;-87
2022/05/29 12:28:52;;;;;;;0.30;0.20;;;15.80;93.00;;;;;;5078998;28;20477;-88
2022/05/29 12:31:23;;;;;;;0.30;0.20;;;15.60;92.40;;;;;;5081243;28;20529;-86
2022/05/29 12:33:51;;;;;;;0.30;0.20;;;15.80;95.00;;;;;;5077646;28;20444;-87
2022/05/29 12:36:35;;;;;;;0.30;0.20;;;16.00;93.70;;;;;;5086300;28;20456;-87
2022/05/29 12:39:17;;;;;;;0.30;0.20;;;16.10;94.00;;;;;;5080300;28;20875;-87
2022/05/29 12:42:15;;;;;;;0.30;0.20;;;16.30;93.00;;;;;;5079368;28;20461;-88
2022/05/29 12:45:01;;;;;;;0.30;0.20;;;16.40;94.20;;;;;;5082903;28;20515;-87
2022/05/29 12:48:02;;;;;;;0.30;0.20;;;16.70;91.80;;;;;;5085778;28;20461;-89
2022/05/29 12:50:48;;;;;;;0.30;0.20;;;16.80;91.70;;;;;;5083728;28;21187;-89
2022/05/29 12:53:49;;;;;;;0.30;0.20;;;17.10;91.30;;;;;;5088156;28;20703;-87
2022/05/29 12:56:43;;;;;;;0.30;0.20;;;16.90;90.60;;;;;;5077201;28;20443;-87
2022/05/29 12:59:40;;;;;;;0.30;0.20;;;16.80;89.10;;;;;;5080414;28;20550;-86
2022/05/29 13:02:23;;;;;;;0.30;0.20;;;16.80;90.50;;;;;;5067700;28;20520;-87
2022/05/29 13:05:32;;;;;;;0.30;0.20;;;16.90;90.50;;;;;;5081919;28;20438;-87
2022/05/29 13:08:21;;;;;;;0.30;0.20;;;16.90;91.10;;;;;;5089012;28;20438;-87
2022/05/29 13:10:52;;;;;;;0.30;0.20;;;16.80;91.20;;;;;;5079996;28;20828;-87
2022/05/29 13:13:22;;;;;;;0.30;0.20;;;16.80;90.20;;;;;;5081291;28;20545;-87
2022/05/29 13:15:50;;;;;;;0.30;0.20;;;16.90;91.00;;;;;;5085897;28;20587;-86
2022/05/29 13:21:12;;;;;;;0.30;0.20;;;16.60;90.10;;;;;;5084638;28;20485;-85
2022/05/29 13:23:42;;;;;;;0.40;0.30;;;16.60;92.50;;;;;;5081348;28;20543;-84
2022/05/29 13:26:22;;;;;;;0.30;0.20;;;16.40;91.10;;;;;;5075509;28;20465;-85
2022/05/29 13:28:52;;;;;;;0.30;0.20;;;16.80;89.80;;;;;;5071280;28;20446;-85
2022/05/29 13:31:21;;;;;;;0.30;0.20;;;16.80;85.30;;;;;;5071381;28;20550;-86
2022/05/29 13:33:53;;;;;;;0.40;0.20;;;16.60;88.90;;;;;;5073819;28;20441;-85
2022/05/29 13:37:06;;;;;;;0.40;0.20;;;16.70;84.90;;;;;;5085470;28;20501;-85
2022/05/29 13:40:00;;;;;;;0.40;0.30;;;16.80;88.90;;;;;;5068991;28;20590;-84
2022/05/29 13:42:44;;;;;;;0.30;0.20;;;16.80;88.10;;;;;;5078669;28;20533;-84
2022/05/29 13:45:37;;;;;;;0.30;0.20;;;16.50;87.80;;;;;;5079259;28;20967;-85
2022/05/29 13:48:18;;;;;;;0.40;0.40;;;17.00;87.90;;;;;;5078131;28;20518;-85
2022/05/29 13:50:56;;;;;;;0.30;0.20;;;17.40;88.00;;;;;;5079819;28;20462;-84
2022/05/29 13:53:41;;;;;;;0.30;0.20;;;17.20;89.40;;;;;;5075700;28;20924;-84